sensor_id;sensor_type;location;lat;lon;timestamp;pressure;altitude;pressure_sealevel;temperature;humidity
73242;BME280;65659;49.234;-2.094;2023-04-29T00:00:14;100698.71;;;14.62;52.10
73242;BME280;65659;49.234;-2.094;2023-04-29T00:02:39;100699.92;;;14.61;52.22
73242;BME280;65659;49.234;-2.094;2023-04-29T00:05:05;100697.93;;;14.62;52.16
73242;BME280;65659;49.234;-2.094;2023-04-29T00:07:31;100698.74;;;14.88;51.96
73242;BME280;65659;49.234;-2.094;2023-04-29T00:09:56;100699.53;;;14.67;52.10
73242;BME280;65659;49.234;-2.094;2023-04-29T00:12:21;100706.98;;;14.68;52.25
73242;BME280;65659;49.234;-2.094;2023-04-29T00:14:47;100709.17;;;14.71;52.32
73242;BME280;65659;49.234;-2.094;2023-04-29T00:17:13;100708.46;;;14.76;52.33
73242;BME280;65659;49.234;-2.094;2023-04-29T00:19:38;100709.16;;;15.06;52.29
73242;BME280;65659;49.234;-2.094;2023-04-29T00:22:03;100708.81;;;14.88;52.20
73242;BME280;65659;49.234;-2.094;2023-04-29T00:24:29;100708.62;;;15.18;52.22
73242;BME280;65659;49.234;-2.094;2023-04-29T00:26:55;100702.74;;;14.75;52.20
73242;BME280;65659;49.234;-2.094;2023-04-29T00:29:20;100701.03;;;15.07;51.95
73242;BME280;65659;49.234;-2.094;2023-04-29T00:31:45;100695.91;;;15.12;52.07
73242;BME280;65659;49.234;-2.094;2023-04-29T00:34:12;100689.49;;;15.23;52.09
73242;BME280;65659;49.234;-2.094;2023-04-29T00:36:36;100690.30;;;15.24;52.25
73242;BME280;65659;49.234;-2.094;2023-04-29T00:39:02;100687.20;;;15.28;52.34
73242;BME280;65659;49.234;-2.094;2023-04-29T00:41:27;100685.44;;;15.30;52.31
73242;BME280;65659;49.234;-2.094;2023-04-29T00:43:53;100687.96;;;15.09;52.34
73242;BME280;65659;49.234;-2.094;2023-04-29T00:46:18;100684.40;;;15.35;52.39
73242;BME280;65659;49.234;-2.094;2023-04-29T00:48:44;100687.14;;;15.14;52.34
73242;BME280;65659;49.234;-2.094;2023-04-29T00:51:09;100682.95;;;15.40;52.22
73242;BME280;65659;49.234;-2.094;2023-04-29T00:53:35;100678.54;;;15.40;52.17
73242;BME280;65659;49.234;-2.094;2023-04-29T00:56:01;100672.76;;;15.18;52.08
73242;BME280;65659;49.234;-2.094;2023-04-29T00:58:27;100669.27;;;15.43;52.10
73242;BME280;65659;49.234;-2.094;2023-04-29T01:00:51;100669.81;;;15.44;52.10
73242;BME280;65659;49.234;-2.094;2023-04-29T01:03:18;100671.99;;;15.46;52.21
73242;BME280;65659;49.234;-2.094;2023-04-29T01:05:44;100674.92;;;15.25;52.25
73242;BME280;65659;49.234;-2.094;2023-04-29T01:08:27;100669.86;;;15.54;52.23
73242;BME280;65659;49.234;-2.094;2023-04-29T01:10:38;100666.08;;;15.60;52.20
73242;BME280;65659;49.234;-2.094;2023-04-29T01:13:05;100668.47;;;15.41;52.32
73242;BME280;65659;49.234;-2.094;2023-04-29T01:15:28;100671.61;;;15.70;52.36
73242;BME280;65659;49.234;-2.094;2023-04-29T01:17:59;100668.62;;;15.51;52.35
73242;BME280;65659;49.234;-2.094;2023-04-29T01:20:16;100666.30;;;15.30;52.27
73242;BME280;65659;49.234;-2.094;2023-04-29T01:22:41;100667.76;;;15.79;52.21
73242;BME280;65659;49.234;-2.094;2023-04-29T01:25:07;100670.72;;;15.34;52.32
73242;BME280;65659;49.234;-2.094;2023-04-29T01:27:38;100671.76;;;15.86;52.21
73242;BME280;65659;49.234;-2.094;2023-04-29T01:30:04;100669.02;;;15.44;52.17
73242;BME280;65659;49.234;-2.094;2023-04-29T01:32:32;100671.12;;;15.72;51.94
73242;BME280;65659;49.234;-2.094;2023-04-29T01:34:58;100672.92;;;15.49;51.62
73242;BME280;65659;49.234;-2.094;2023-04-29T01:37:20;100676.46;;;15.47;51.64
73242;BME280;65659;49.234;-2.094;2023-04-29T01:39:45;100678.39;;;15.47;51.49
73242;BME280;65659;49.234;-2.094;2023-04-29T01:42:14;100680.21;;;15.73;51.34
73242;BME280;65659;49.234;-2.094;2023-04-29T01:44:32;100680.18;;;15.53;51.13
73242;BME280;65659;49.234;-2.094;2023-04-29T01:46:58;100673.32;;;15.66;51.18
73242;BME280;65659;49.234;-2.094;2023-04-29T01:49:24;100669.32;;;15.59;51.09
73242;BME280;65659;49.234;-2.094;2023-04-29T01:51:50;100669.84;;;15.31;50.95
73242;BME280;65659;49.234;-2.094;2023-04-29T01:54:13;100670.63;;;15.46;50.39
73242;BME280;65659;49.234;-2.094;2023-04-29T01:56:39;100670.04;;;15.33;49.92
73242;BME280;65659;49.234;-2.094;2023-04-29T01:59:04;100667.59;;;15.60;49.55
73242;BME280;65659;49.234;-2.094;2023-04-29T02:01:30;100670.27;;;15.35;49.28
73242;BME280;65659;49.234;-2.094;2023-04-29T02:03:55;100671.54;;;15.55;49.39
73242;BME280;65659;49.234;-2.094;2023-04-29T02:06:21;100673.61;;;15.26;49.40
73242;BME280;65659;49.234;-2.094;2023-04-29T02:08:46;100672.96;;;15.45;49.75
73242;BME280;65659;49.234;-2.094;2023-04-29T02:11:12;100671.18;;;15.41;49.97
73242;BME280;65659;49.234;-2.094;2023-04-29T02:13:37;100673.31;;;15.41;50.23
73242;BME280;65659;49.234;-2.094;2023-04-29T02:16:08;100671.39;;;15.40;50.37
73242;BME280;65659;49.234;-2.094;2023-04-29T02:18:28;100671.46;;;15.43;50.46
73242;BME280;65659;49.234;-2.094;2023-04-29T02:20:59;100674.45;;;15.43;50.58
73242;BME280;65659;49.234;-2.094;2023-04-29T02:23:20;100674.97;;;15.43;50.64
73242;BME280;65659;49.234;-2.094;2023-04-29T02:25:45;100678.33;;;15.44;50.75
73242;BME280;65659;49.234;-2.094;2023-04-29T02:28:10;100677.69;;;15.45;50.83
73242;BME280;65659;49.234;-2.094;2023-04-29T02:30:35;100676.73;;;15.70;50.91
73242;BME280;65659;49.234;-2.094;2023-04-29T02:33:01;100675.35;;;15.48;50.79
73242;BME280;65659;49.234;-2.094;2023-04-29T02:35:27;100679.38;;;15.45;50.01
73242;BME280;65659;49.234;-2.094;2023-04-29T02:37:53;100683.53;;;15.16;49.58
73242;BME280;65659;49.234;-2.094;2023-04-29T02:40:19;100681.28;;;15.29;49.12
73242;BME280;65659;49.234;-2.094;2023-04-29T02:42:44;100688.80;;;15.22;48.91
73242;BME280;65659;49.234;-2.094;2023-04-29T02:45:10;100695.15;;;15.17;48.91
73242;BME280;65659;49.234;-2.094;2023-04-29T02:47:35;100693.40;;;15.06;48.83
73242;BME280;65659;49.234;-2.094;2023-04-29T02:50:00;100697.88;;;14.96;48.83
73242;BME280;65659;49.234;-2.094;2023-04-29T02:52:25;100700.14;;;14.88;48.82
73242;BME280;65659;49.234;-2.094;2023-04-29T02:54:52;100700.06;;;14.81;48.78
73242;BME280;65659;49.234;-2.094;2023-04-29T02:57:16;100697.88;;;14.95;48.80
73242;BME280;65659;49.234;-2.094;2023-04-29T02:59:43;100696.81;;;14.93;48.87
73242;BME280;65659;49.234;-2.094;2023-04-29T03:02:07;100696.16;;;14.64;49.12
73242;BME280;65659;49.234;-2.094;2023-04-29T03:04:32;100700.07;;;14.60;49.35
73242;BME280;65659;49.234;-2.094;2023-04-29T03:06:57;100697.40;;;15.05;49.80
73242;BME280;65659;49.234;-2.094;2023-04-29T03:09:22;100703.22;;;14.57;50.09
73242;BME280;65659;49.234;-2.094;2023-04-29T03:11:48;100705.47;;;15.05;50.52
73242;BME280;65659;49.234;-2.094;2023-04-29T03:14:12;100701.91;;;14.62;50.63
73242;BME280;65659;49.234;-2.094;2023-04-29T03:16:38;100695.74;;;14.66;50.75
73242;BME280;65659;49.234;-2.094;2023-04-29T03:19:03;100695.66;;;14.72;50.83
73242;BME280;65659;49.234;-2.094;2023-04-29T03:21:28;100694.56;;;14.76;50.90
73242;BME280;65659;49.234;-2.094;2023-04-29T03:23:53;100695.44;;;14.79;51.03
73242;BME280;65659;49.234;-2.094;2023-04-29T03:26:18;100694.24;;;14.84;51.11
73242;BME280;65659;49.234;-2.094;2023-04-29T03:28:43;100693.88;;;14.90;51.26
73242;BME280;65659;49.234;-2.094;2023-04-29T03:31:08;100692.18;;;14.95;51.31
73242;BME280;65659;49.234;-2.094;2023-04-29T03:33:34;100700.36;;;15.49;51.30
73242;BME280;65659;49.234;-2.094;2023-04-29T03:38:24;100704.55;;;15.16;51.04
73242;BME280;65659;49.234;-2.094;2023-04-29T03:40:50;100702.69;;;15.40;50.90
73242;BME280;65659;49.234;-2.094;2023-04-29T03:43:15;100704.80;;;15.17;50.88
73242;BME280;65659;49.234;-2.094;2023-04-29T03:45:40;100707.31;;;15.16;50.88
73242;BME280;65659;49.234;-2.094;2023-04-29T03:48:06;100708.62;;;15.14;50.52
73242;BME280;65659;49.234;-2.094;2023-04-29T03:50:31;100712.00;;;15.11;49.87
73242;BME280;65659;49.234;-2.094;2023-04-29T03:52:56;100710.13;;;15.05;49.53
73242;BME280;65659;49.234;-2.094;2023-04-29T03:55:21;100712.33;;;14.98;49.28
73242;BME280;65659;49.234;-2.094;2023-04-29T03:57:46;100714.49;;;14.90;49.23
73242;BME280;65659;49.234;-2.094;2023-04-29T04:00:12;100719.20;;;14.84;49.05
73242;BME280;65659;49.234;-2.094;2023-04-29T04:02:37;100723.26;;;14.74;48.97
73242;BME280;65659;49.234;-2.094;2023-04-29T04:05:02;100725.67;;;15.18;48.98
73242;BME280;65659;49.234;-2.094;2023-04-29T04:07:27;100724.20;;;14.84;48.94
73242;BME280;65659;49.234;-2.094;2023-04-29T04:09:52;100721.96;;;14.54;48.97
73242;BME280;65659;49.234;-2.094;2023-04-29T04:12:17;100721.27;;;14.70;48.98
73242;BME280;65659;49.234;-2.094;2023-04-29T04:14:42;100722.77;;;14.65;48.97
73242;BME280;65659;49.234;-2.094;2023-04-29T04:17:07;100728.10;;;14.36;48.97
73242;BME280;65659;49.234;-2.094;2023-04-29T04:19:32;100727.75;;;14.57;49.13
73242;BME280;65659;49.234;-2.094;2023-04-29T04:21:57;100727.92;;;14.55;49.00
73242;BME280;65659;49.234;-2.094;2023-04-29T04:24:23;100726.61;;;14.49;48.77
73242;BME280;65659;49.234;-2.094;2023-04-29T04:26:47;100726.01;;;14.20;48.63
73242;BME280;65659;49.234;-2.094;2023-04-29T04:29:13;100727.60;;;14.40;48.71
73242;BME280;65659;49.234;-2.094;2023-04-29T04:31:38;100724.20;;;14.59;48.77
73242;BME280;65659;49.234;-2.094;2023-04-29T04:34:03;100723.07;;;14.50;48.75
73242;BME280;65659;49.234;-2.094;2023-04-29T04:36:28;100725.43;;;14.46;48.44
73242;BME280;65659;49.234;-2.094;2023-04-29T04:38:53;100724.02;;;14.35;48.46
73242;BME280;65659;49.234;-2.094;2023-04-29T04:41:18;100722.97;;;14.27;48.33
73242;BME280;65659;49.234;-2.094;2023-04-29T04:43:43;100721.51;;;14.20;48.33
73242;BME280;65659;49.234;-2.094;2023-04-29T04:46:10;100719.48;;;14.11;48.42
73242;BME280;65659;49.234;-2.094;2023-04-29T04:48:33;100720.29;;;14.04;48.50
73242;BME280;65659;49.234;-2.094;2023-04-29T04:50:59;100728.30;;;14.03;48.45
73242;BME280;65659;49.234;-2.094;2023-04-29T04:53:24;100732.72;;;14.02;48.68
73242;BME280;65659;49.234;-2.094;2023-04-29T04:55:49;100733.06;;;14.03;48.93
73242;BME280;65659;49.234;-2.094;2023-04-29T04:58:14;100732.01;;;14.09;49.13
73242;BME280;65659;49.234;-2.094;2023-04-29T05:00:43;100733.28;;;14.25;49.34
73242;BME280;65659;49.234;-2.094;2023-04-29T05:03:04;100739.60;;;14.34;49.51
73242;BME280;65659;49.234;-2.094;2023-04-29T05:05:29;100744.17;;;14.42;49.64
73242;BME280;65659;49.234;-2.094;2023-04-29T05:07:54;100747.07;;;14.48;49.64
73242;BME280;65659;49.234;-2.094;2023-04-29T05:10:20;100752.35;;;14.64;49.74
73242;BME280;65659;49.234;-2.094;2023-04-29T05:12:45;100756.32;;;14.73;49.22
73242;BME280;65659;49.234;-2.094;2023-04-29T05:15:10;100760.99;;;14.80;48.88
73242;BME280;65659;49.234;-2.094;2023-04-29T05:17:35;100763.01;;;14.64;48.44
73242;BME280;65659;49.234;-2.094;2023-04-29T05:20:00;100767.38;;;14.72;48.07
73242;BME280;65659;49.234;-2.094;2023-04-29T05:22:25;100766.36;;;15.02;47.94
73242;BME280;65659;49.234;-2.094;2023-04-29T05:24:51;100768.44;;;14.61;47.74
73242;BME280;65659;49.234;-2.094;2023-04-29T05:27:15;100768.83;;;14.69;47.64
73242;BME280;65659;49.234;-2.094;2023-04-29T05:29:40;100765.44;;;15.01;47.67
73242;BME280;65659;49.234;-2.094;2023-04-29T05:32:05;100764.42;;;15.12;47.62
73242;BME280;65659;49.234;-2.094;2023-04-29T05:34:30;100762.52;;;14.98;47.61
73242;BME280;65659;49.234;-2.094;2023-04-29T05:36:55;100763.17;;;15.05;47.67
73242;BME280;65659;49.234;-2.094;2023-04-29T05:39:20;100762.74;;;15.14;47.81
73242;BME280;65659;49.234;-2.094;2023-04-29T05:41:46;100762.89;;;14.98;47.90
73242;BME280;65659;49.234;-2.094;2023-04-29T05:44:11;100766.12;;;15.37;47.94
73242;BME280;65659;49.234;-2.094;2023-04-29T05:46:36;100769.40;;;15.47;48.54
73242;BME280;65659;49.234;-2.094;2023-04-29T05:49:01;100770.32;;;15.57;49.31
73242;BME280;65659;49.234;-2.094;2023-04-29T05:51:26;100776.08;;;15.57;50.12
73242;BME280;65659;49.234;-2.094;2023-04-29T05:53:52;100778.10;;;15.18;50.68
73242;BME280;65659;49.234;-2.094;2023-04-29T05:56:17;100778.13;;;15.80;51.03
73242;BME280;65659;49.234;-2.094;2023-04-29T05:58:43;100782.16;;;15.45;51.12
73242;BME280;65659;49.234;-2.094;2023-04-29T06:01:08;100780.77;;;15.83;50.85
73242;BME280;65659;49.234;-2.094;2023-04-29T06:03:33;100781.05;;;15.72;51.22
73242;BME280;65659;49.234;-2.094;2023-04-29T06:05:59;100782.27;;;15.84;51.29
73242;BME280;65659;49.234;-2.094;2023-04-29T06:08:24;100781.86;;;15.97;51.28
73242;BME280;65659;49.234;-2.094;2023-04-29T06:10:51;100780.70;;;16.09;51.27
73242;BME280;65659;49.234;-2.094;2023-04-29T06:13:15;100785.26;;;15.98;51.14
73242;BME280;65659;49.234;-2.094;2023-04-29T06:15:41;100791.53;;;16.09;51.06
73242;BME280;65659;49.234;-2.094;2023-04-29T06:18:07;100797.79;;;16.18;50.88
73242;BME280;65659;49.234;-2.094;2023-04-29T06:20:33;100794.29;;;16.22;50.88
73242;BME280;65659;49.234;-2.094;2023-04-29T06:22:58;100791.57;;;16.55;50.83
73242;BME280;65659;49.234;-2.094;2023-04-29T06:25:24;100785.92;;;16.39;50.63
73242;BME280;65659;49.234;-2.094;2023-04-29T06:27:50;100784.82;;;16.47;50.57
73242;BME280;65659;49.234;-2.094;2023-04-29T06:30:15;100785.76;;;16.52;50.52
73242;BME280;65659;49.234;-2.094;2023-04-29T06:32:40;100788.59;;;16.63;50.38
73242;BME280;65659;49.234;-2.094;2023-04-29T06:35:07;100795.72;;;16.95;50.25
73242;BME280;65659;49.234;-2.094;2023-04-29T06:37:32;100802.00;;;16.78;50.27
73242;BME280;65659;49.234;-2.094;2023-04-29T06:39:57;100801.65;;;16.62;50.26
73242;BME280;65659;49.234;-2.094;2023-04-29T06:42:27;100801.44;;;16.98;50.07
73242;BME280;65659;49.234;-2.094;2023-04-29T06:44:48;100802.96;;;16.85;49.90
73242;BME280;65659;49.234;-2.094;2023-04-29T06:47:13;100803.68;;;16.98;49.70
73242;BME280;65659;49.234;-2.094;2023-04-29T06:49:38;100808.46;;;17.12;49.64
73242;BME280;65659;49.234;-2.094;2023-04-29T06:52:04;100814.29;;;16.95;49.29
73242;BME280;65659;49.234;-2.094;2023-04-29T06:54:30;100818.44;;;17.25;49.28
73242;BME280;65659;49.234;-2.094;2023-04-29T06:56:55;100820.70;;;17.08;49.31
73242;BME280;65659;49.234;-2.094;2023-04-29T06:59:21;100823.07;;;17.39;49.14
73242;BME280;65659;49.234;-2.094;2023-04-29T07:01:47;100822.54;;;17.49;48.89
73242;BME280;65659;49.234;-2.094;2023-04-29T07:04:12;100823.51;;;17.60;48.69
73242;BME280;65659;49.234;-2.094;2023-04-29T07:06:37;100821.68;;;17.44;48.54
73242;BME280;65659;49.234;-2.094;2023-04-29T07:09:03;100822.36;;;17.49;48.50
73242;BME280;65659;49.234;-2.094;2023-04-29T07:11:29;100823.85;;;17.33;48.45
73242;BME280;65659;49.234;-2.094;2023-04-29T07:13:55;100828.16;;;17.41;48.41
73242;BME280;65659;49.234;-2.094;2023-04-29T07:16:19;100830.71;;;17.49;48.46
73242;BME280;65659;49.234;-2.094;2023-04-29T07:18:45;100833.78;;;17.83;48.19
73242;BME280;65659;49.234;-2.094;2023-04-29T07:21:11;100836.33;;;17.69;48.01
73242;BME280;65659;49.234;-2.094;2023-04-29T07:23:36;100836.79;;;17.81;47.67
73242;BME280;65659;49.234;-2.094;2023-04-29T07:26:10;100840.44;;;17.85;47.35
73242;BME280;65659;49.234;-2.094;2023-04-29T07:28:27;100838.73;;;17.83;47.35
73242;BME280;65659;49.234;-2.094;2023-04-29T07:30:52;100844.18;;;17.56;47.27
73242;BME280;65659;49.234;-2.094;2023-04-29T07:33:18;100841.67;;;18.25;47.28
73242;BME280;65659;49.234;-2.094;2023-04-29T07:35:43;100841.88;;;17.73;47.40
73242;BME280;65659;49.234;-2.094;2023-04-29T07:38:09;100847.40;;;17.70;46.95
73242;BME280;65659;49.234;-2.094;2023-04-29T07:40:35;100851.59;;;18.10;47.15
73242;BME280;65659;49.234;-2.094;2023-04-29T07:43:00;100856.12;;;17.57;47.34
73242;BME280;65659;49.234;-2.094;2023-04-29T07:45:26;100858.45;;;17.72;47.40
73242;BME280;65659;49.234;-2.094;2023-04-29T07:47:52;100859.21;;;17.51;47.41
73242;BME280;65659;49.234;-2.094;2023-04-29T07:50:17;100865.56;;;17.78;47.56
73242;BME280;65659;49.234;-2.094;2023-04-29T07:52:43;100866.71;;;17.85;47.47
73242;BME280;65659;49.234;-2.094;2023-04-29T07:55:09;100865.60;;;17.66;47.11
73242;BME280;65659;49.234;-2.094;2023-04-29T07:57:34;100868.32;;;17.71;46.76
73242;BME280;65659;49.234;-2.094;2023-04-29T08:00:00;100873.00;;;17.73;46.61
73242;BME280;65659;49.234;-2.094;2023-04-29T08:02:25;100873.28;;;17.79;46.59
73242;BME280;65659;49.234;-2.094;2023-04-29T08:04:51;100867.79;;;17.89;46.56
73242;BME280;65659;49.234;-2.094;2023-04-29T08:07:16;100864.18;;;17.99;46.34
73242;BME280;65659;49.234;-2.094;2023-04-29T08:09:42;100867.39;;;18.05;45.95
73242;BME280;65659;49.234;-2.094;2023-04-29T08:12:08;100867.22;;;18.09;45.89
73242;BME280;65659;49.234;-2.094;2023-04-29T08:14:34;100867.07;;;18.13;45.72
73242;BME280;65659;49.234;-2.094;2023-04-29T08:17:00;100867.96;;;18.20;45.71
73242;BME280;65659;49.234;-2.094;2023-04-29T08:19:26;100864.19;;;18.28;45.22
73242;BME280;65659;49.234;-2.094;2023-04-29T08:21:52;100865.56;;;18.38;45.02
73242;BME280;65659;49.234;-2.094;2023-04-29T08:24:17;100869.97;;;18.19;44.89
73242;BME280;65659;49.234;-2.094;2023-04-29T08:26:43;100877.53;;;18.52;44.96
73242;BME280;65659;49.234;-2.094;2023-04-29T08:29:09;100870.74;;;18.45;44.92
73242;BME280;65659;49.234;-2.094;2023-04-29T08:31:34;100870.57;;;18.80;44.87
73242;BME280;65659;49.234;-2.094;2023-04-29T08:34:00;100873.83;;;18.80;44.62
73242;BME280;65659;49.234;-2.094;2023-04-29T08:36:26;100874.15;;;18.51;44.38
73242;BME280;65659;49.234;-2.094;2023-04-29T08:38:52;100873.48;;;18.58;43.80
73242;BME280;65659;49.234;-2.094;2023-04-29T08:41:17;100869.80;;;19.06;43.24
73242;BME280;65659;49.234;-2.094;2023-04-29T08:43:43;100872.33;;;19.01;43.13
73242;BME280;65659;49.234;-2.094;2023-04-29T08:46:09;100872.45;;;19.16;42.35
73242;BME280;65659;49.234;-2.094;2023-04-29T08:48:36;100874.22;;;19.02;42.03
73242;BME280;65659;49.234;-2.094;2023-04-29T08:51:01;100875.17;;;19.33;42.11
73242;BME280;65659;49.234;-2.094;2023-04-29T08:53:27;100879.33;;;19.17;41.73
73242;BME280;65659;49.234;-2.094;2023-04-29T08:55:54;100881.50;;;19.27;41.40
73242;BME280;65659;49.234;-2.094;2023-04-29T08:58:24;100879.71;;;19.36;41.32
73242;BME280;65659;49.234;-2.094;2023-04-29T09:00:44;100882.83;;;19.44;40.99
73242;BME280;65659;49.234;-2.094;2023-04-29T09:03:16;100883.45;;;19.50;40.95
73242;BME280;65659;49.234;-2.094;2023-04-29T09:05:35;100884.65;;;19.55;40.94
73242;BME280;65659;49.234;-2.094;2023-04-29T09:08:02;100886.03;;;19.40;40.71
73242;BME280;65659;49.234;-2.094;2023-04-29T09:10:27;100889.57;;;19.50;40.96
73242;BME280;65659;49.234;-2.094;2023-04-29T09:12:58;100891.74;;;19.64;40.89
73242;BME280;65659;49.234;-2.094;2023-04-29T09:15:19;100891.95;;;19.92;40.97
73242;BME280;65659;49.234;-2.094;2023-04-29T09:17:45;100897.31;;;20.02;41.24
73242;BME280;65659;49.234;-2.094;2023-04-29T09:20:26;100901.83;;;19.92;41.68
73242;BME280;65659;49.234;-2.094;2023-04-29T09:22:46;100905.25;;;19.67;41.66
73242;BME280;65659;49.234;-2.094;2023-04-29T09:25:11;100908.72;;;19.74;41.68
73242;BME280;65659;49.234;-2.094;2023-04-29T09:27:26;100910.05;;;19.80;41.53
73242;BME280;65659;49.234;-2.094;2023-04-29T09:30:00;100907.93;;;20.04;41.60
73242;BME280;65659;49.234;-2.094;2023-04-29T09:32:19;100904.82;;;19.85;41.53
73242;BME280;65659;49.234;-2.094;2023-04-29T09:34:43;100902.80;;;20.12;41.35
73242;BME280;65659;49.234;-2.094;2023-04-29T09:37:23;100907.03;;;19.80;41.82
73242;BME280;65659;49.234;-2.094;2023-04-29T09:39:38;100906.45;;;19.90;41.56
73242;BME280;65659;49.234;-2.094;2023-04-29T09:42:00;100904.01;;;19.98;41.83
73242;BME280;65659;49.234;-2.094;2023-04-29T09:44:28;100906.91;;;20.04;41.82
73242;BME280;65659;49.234;-2.094;2023-04-29T09:46:54;100905.51;;;20.12;41.84
73242;BME280;65659;49.234;-2.094;2023-04-29T09:49:24;100905.31;;;19.97;41.92
73242;BME280;65659;49.234;-2.094;2023-04-29T09:51:51;100903.96;;;20.28;41.89
73242;BME280;65659;49.234;-2.094;2023-04-29T09:54:19;100904.56;;;20.42;41.68
73242;BME280;65659;49.234;-2.094;2023-04-29T09:59:07;100900.31;;;20.54;41.16
73242;BME280;65659;49.234;-2.094;2023-04-29T10:01:26;100899.20;;;20.56;41.17
73242;BME280;65659;49.234;-2.094;2023-04-29T10:03:54;100901.19;;;20.59;41.22
73242;BME280;65659;49.234;-2.094;2023-04-29T10:06:17;100905.22;;;20.65;41.28
73242;BME280;65659;49.234;-2.094;2023-04-29T10:08:43;100909.55;;;20.73;41.37
73242;BME280;65659;49.234;-2.094;2023-04-29T10:11:10;100911.23;;;20.73;41.09
73242;BME280;65659;49.234;-2.094;2023-04-29T10:13:34;100912.84;;;20.82;41.01
73242;BME280;65659;49.234;-2.094;2023-04-29T10:16:08;100914.06;;;20.92;41.03
73242;BME280;65659;49.234;-2.094;2023-04-29T10:18:33;100916.07;;;21.02;40.84
73242;BME280;65659;49.234;-2.094;2023-04-29T10:20:51;100917.21;;;21.08;40.57
73242;BME280;65659;49.234;-2.094;2023-04-29T10:23:18;100911.36;;;20.96;40.52
73242;BME280;65659;49.234;-2.094;2023-04-29T10:25:43;100907.88;;;21.00;40.15
73242;BME280;65659;49.234;-2.094;2023-04-29T10:28:09;100905.62;;;21.06;39.97
73242;BME280;65659;49.234;-2.094;2023-04-29T10:30:35;100907.98;;;20.84;39.71
73242;BME280;65659;49.234;-2.094;2023-04-29T10:33:00;100906.20;;;20.91;39.73
73242;BME280;65659;49.234;-2.094;2023-04-29T10:35:25;100910.41;;;20.99;39.94
73242;BME280;65659;49.234;-2.094;2023-04-29T10:37:52;100908.83;;;21.26;39.61
73242;BME280;65659;49.234;-2.094;2023-04-29T10:40:23;100911.04;;;21.30;39.33
73242;BME280;65659;49.234;-2.094;2023-04-29T10:42:44;100913.19;;;21.12;39.43
73242;BME280;65659;49.234;-2.094;2023-04-29T10:45:19;100914.61;;;21.16;39.40
73242;BME280;65659;49.234;-2.094;2023-04-29T10:47:34;100917.78;;;21.26;38.88
73242;BME280;65659;49.234;-2.094;2023-04-29T10:50:03;100913.80;;;21.56;38.96
73242;BME280;65659;49.234;-2.094;2023-04-29T10:52:24;100911.91;;;21.29;38.79
73242;BME280;65659;49.234;-2.094;2023-04-29T10:57:20;100915.98;;;21.30;38.73
73242;BME280;65659;49.234;-2.094;2023-04-29T10:59:44;100921.68;;;21.21;38.28
73242;BME280;65659;49.234;-2.094;2023-04-29T11:02:08;100923.76;;;21.27;38.13
73242;BME280;65659;49.234;-2.094;2023-04-29T11:04:33;100925.69;;;20.94;38.12
73242;BME280;65659;49.234;-2.094;2023-04-29T11:06:58;100923.91;;;21.33;38.10
73242;BME280;65659;49.234;-2.094;2023-04-29T11:09:25;100920.52;;;21.28;38.04
73242;BME280;65659;49.234;-2.094;2023-04-29T11:12:00;100917.63;;;21.29;38.72
73242;BME280;65659;49.234;-2.094;2023-04-29T11:14:21;100914.43;;;21.51;38.51
73242;BME280;65659;49.234;-2.094;2023-04-29T11:16:47;100915.04;;;21.37;39.01
73242;BME280;65659;49.234;-2.094;2023-04-29T11:19:08;100917.77;;;21.19;38.74
73242;BME280;65659;49.234;-2.094;2023-04-29T11:21:33;100915.71;;;21.54;38.44
73242;BME280;65659;49.234;-2.094;2023-04-29T11:23:58;100917.72;;;21.74;38.00
73242;BME280;65659;49.234;-2.094;2023-04-29T11:26:23;100918.21;;;21.90;37.75
73242;BME280;65659;49.234;-2.094;2023-04-29T11:28:50;100918.29;;;22.01;37.61
73242;BME280;65659;49.234;-2.094;2023-04-29T11:31:15;100916.41;;;22.07;37.38
73242;BME280;65659;49.234;-2.094;2023-04-29T11:33:40;100918.61;;;22.23;37.29
73242;BME280;65659;49.234;-2.094;2023-04-29T11:36:06;100916.02;;;22.28;37.33
73242;BME280;65659;49.234;-2.094;2023-04-29T11:38:31;100915.16;;;22.42;36.85
73242;BME280;65659;49.234;-2.094;2023-04-29T11:40:58;100913.85;;;22.53;37.39
73242;BME280;65659;49.234;-2.094;2023-04-29T11:43:23;100909.46;;;22.70;37.68
73242;BME280;65659;49.234;-2.094;2023-04-29T11:45:49;100901.96;;;22.69;37.23
73242;BME280;65659;49.234;-2.094;2023-04-29T11:48:17;100898.92;;;22.70;37.27
73242;BME280;65659;49.234;-2.094;2023-04-29T11:50:41;100899.61;;;22.84;37.11
73242;BME280;65659;49.234;-2.094;2023-04-29T11:53:03;100897.61;;;22.99;36.83
73242;BME280;65659;49.234;-2.094;2023-04-29T11:55:29;100897.14;;;23.16;36.82
73242;BME280;65659;49.234;-2.094;2023-04-29T11:57:54;100898.23;;;23.01;36.59
73242;BME280;65659;49.234;-2.094;2023-04-29T12:00:20;100897.42;;;23.57;36.26
73242;BME280;65659;49.234;-2.094;2023-04-29T12:02:46;100897.31;;;23.88;36.02
73242;BME280;65659;49.234;-2.094;2023-04-29T12:05:11;100898.66;;;23.97;35.47
73242;BME280;65659;49.234;-2.094;2023-04-29T12:07:37;100893.54;;;24.38;35.19
73242;BME280;65659;49.234;-2.094;2023-04-29T12:10:02;100894.27;;;24.34;34.56
73242;BME280;65659;49.234;-2.094;2023-04-29T12:12:27;100891.29;;;24.75;34.25
73242;BME280;65659;49.234;-2.094;2023-04-29T12:14:53;100894.51;;;24.58;34.14
73242;BME280;65659;49.234;-2.094;2023-04-29T12:17:19;100891.56;;;24.74;33.89
73242;BME280;65659;49.234;-2.094;2023-04-29T12:19:44;100884.55;;;25.11;33.88
73242;BME280;65659;49.234;-2.094;2023-04-29T12:22:10;100883.71;;;25.01;33.58
73242;BME280;65659;49.234;-2.094;2023-04-29T12:24:36;100883.20;;;24.97;33.50
73242;BME280;65659;49.234;-2.094;2023-04-29T12:27:01;100884.87;;;25.44;32.77
73242;BME280;65659;49.234;-2.094;2023-04-29T12:29:26;100884.54;;;25.43;32.58
73242;BME280;65659;49.234;-2.094;2023-04-29T12:31:55;100884.75;;;25.47;31.87
73242;BME280;65659;49.234;-2.094;2023-04-29T12:36:44;100883.66;;;25.44;31.33
73242;BME280;65659;49.234;-2.094;2023-04-29T12:39:10;100886.39;;;25.50;31.77